createdAt,value
2018-04-16T00:00:48.580Z,12.20
2018-04-16T00:03:21.215Z,12.20
2018-04-16T00:05:54.721Z,12.20
2018-04-16T00:08:27.332Z,12.20
2018-04-16T00:10:59.931Z,12.10
2018-04-16T00:13:32.555Z,12.10
2018-04-16T00:16:05.155Z,12.10
2018-04-16T00:18:37.779Z,12.10
2018-04-16T00:21:11.140Z,12.10
2018-04-16T00:23:43.796Z,12.00
2018-04-16T00:26:16.390Z,12.00
2018-04-16T00:28:49.027Z,12.00
2018-04-16T00:31:21.623Z,12.00
2018-04-16T00:33:59.995Z,12.00
2018-04-16T00:36:38.368Z,12.00
2018-04-16T00:42:27.436Z,12.00
2018-04-16T00:45:05.740Z,12.00
2018-04-16T00:47:44.896Z,12.00
2018-04-16T00:50:24.054Z,12.00
2018-04-16T00:53:02.391Z,12.00
2018-04-16T00:55:40.767Z,12.00
2018-04-16T00:58:19.096Z,12.00
2018-04-16T01:00:57.509Z,11.90
2018-04-16T01:03:35.895Z,11.90
2018-04-16T01:06:14.153Z,11.90
2018-04-16T01:08:52.547Z,11.90
2018-04-16T01:11:30.831Z,11.80
2018-04-16T01:14:09.055Z,11.80
2018-04-16T01:16:47.525Z,11.80
2018-04-16T01:19:25.899Z,11.80
2018-04-16T01:22:04.916Z,11.80
2018-04-16T01:24:43.388Z,11.70
2018-04-16T01:27:22.431Z,11.70
2018-04-16T01:30:01.392Z,11.60
2018-04-16T01:32:40.421Z,11.60
2018-04-16T01:35:19.559Z,11.60
2018-04-16T01:37:57.828Z,11.50
2018-04-16T01:40:36.247Z,11.50
2018-04-16T01:43:14.587Z,11.50
2018-04-16T01:45:53.548Z,11.50
2018-04-16T01:48:31.814Z,11.50
2018-04-16T01:51:11.026Z,11.50
2018-04-16T01:53:49.253Z,11.50
2018-04-16T01:56:27.470Z,11.50
2018-04-16T01:59:05.751Z,11.50
2018-04-16T02:01:44.106Z,11.50
2018-04-16T02:04:22.294Z,11.50
2018-04-16T02:07:00.574Z,11.50
2018-04-16T02:09:38.826Z,11.50
2018-04-16T02:12:17.863Z,11.50
2018-04-16T02:14:56.889Z,11.50
2018-04-16T02:17:35.091Z,11.40
2018-04-16T02:20:13.256Z,11.40
2018-04-16T02:22:52.281Z,11.40
2018-04-16T02:25:30.566Z,11.40
2018-04-16T02:28:09.643Z,11.40
2018-04-16T02:30:47.832Z,11.40
2018-04-16T02:33:26.248Z,11.40
2018-04-16T02:36:04.610Z,11.40
2018-04-16T02:38:43.019Z,11.40
2018-04-16T02:41:21.243Z,11.40
2018-04-16T02:43:59.499Z,11.40
2018-04-16T02:46:37.754Z,11.40
2018-04-16T02:49:16.193Z,11.40
2018-04-16T02:51:54.598Z,11.40
2018-04-16T02:54:33.731Z,11.40
2018-04-16T02:57:12.187Z,11.40
2018-04-16T02:59:50.375Z,11.40
2018-04-16T03:02:28.604Z,11.40
2018-04-16T03:08:18.555Z,11.40
2018-04-16T03:10:56.798Z,11.30
2018-04-16T03:13:35.188Z,11.30
2018-04-16T03:19:26.048Z,11.30
2018-04-16T03:22:04.311Z,11.30
2018-04-16T03:24:42.608Z,11.30
2018-04-16T03:27:21.635Z,11.20
2018-04-16T03:30:00.017Z,11.20
2018-04-16T03:32:38.229Z,11.20
2018-04-16T03:35:16.624Z,11.20
2018-04-16T03:37:55.570Z,11.20
2018-04-16T03:40:34.600Z,11.20
2018-04-16T03:43:12.803Z,11.20
2018-04-16T03:45:51.121Z,11.20
2018-04-16T03:48:29.520Z,11.20
2018-04-16T03:54:19.410Z,11.10
2018-04-16T03:56:52.012Z,11.10
2018-04-16T03:59:25.407Z,11.10
2018-04-16T04:01:58.009Z,11.10
2018-04-16T04:04:31.396Z,11.00
2018-04-16T04:07:03.996Z,11.00
2018-04-16T04:09:36.639Z,11.00
2018-04-16T04:12:09.240Z,11.00
2018-04-16T04:14:41.887Z,10.90
2018-04-16T04:17:14.502Z,10.90
2018-04-16T04:19:47.138Z,10.90
2018-04-16T04:22:19.743Z,10.90
2018-04-16T04:25:04.289Z,10.80
2018-04-16T04:27:48.688Z,10.80
2018-04-16T04:30:39.984Z,10.80
2018-04-16T04:33:12.598Z,10.80
2018-04-16T04:35:45.218Z,10.80
2018-04-16T04:38:18.578Z,10.80
2018-04-16T04:40:51.223Z,10.70
2018-04-16T04:43:24.604Z,10.80
2018-04-16T04:45:57.288Z,10.80
2018-04-16T04:48:29.888Z,10.80
2018-04-16T04:51:02.524Z,10.80
2018-04-16T04:53:35.122Z,10.80
2018-04-16T04:56:07.768Z,10.80
2018-04-16T04:58:40.363Z,10.70
2018-04-16T05:01:13.011Z,10.70
2018-04-16T05:03:46.377Z,10.80
2018-04-16T05:06:19.768Z,10.80
2018-04-16T05:08:52.368Z,10.80
2018-04-16T05:11:24.999Z,10.80
2018-04-16T05:13:57.608Z,10.80
2018-04-16T05:16:30.220Z,10.80
2018-04-16T05:19:02.825Z,10.80
2018-04-16T05:21:35.446Z,10.80
2018-04-16T05:24:08.811Z,10.80
2018-04-16T05:26:41.427Z,10.80
2018-04-16T05:29:14.028Z,10.80
2018-04-16T05:31:47.415Z,10.80
2018-04-16T05:34:20.018Z,10.80
2018-04-16T05:36:52.663Z,10.80
2018-04-16T05:39:25.283Z,10.80
2018-04-16T05:41:57.918Z,10.80
2018-04-16T05:44:30.510Z,10.80
2018-04-16T05:47:03.151Z,10.90
2018-04-16T05:49:35.751Z,10.90
2018-04-16T05:52:08.379Z,10.90
2018-04-16T05:54:41.743Z,10.90
2018-04-16T05:57:14.373Z,10.80
2018-04-16T05:59:47.739Z,10.80
2018-04-16T06:02:20.384Z,10.80
2018-04-16T06:04:52.981Z,10.90
2018-04-16T06:07:25.619Z,10.90
2018-04-16T06:09:58.234Z,10.80
2018-04-16T06:12:30.877Z,10.90
2018-04-16T06:15:03.486Z,10.90
2018-04-16T06:17:36.131Z,10.90
2018-04-16T06:20:08.735Z,10.90
2018-04-16T06:22:41.375Z,11.00
2018-04-16T06:25:13.975Z,11.00
2018-04-16T06:27:46.595Z,11.00
2018-04-16T06:30:19.199Z,11.00
2018-04-16T06:32:51.843Z,11.00
2018-04-16T06:35:24.447Z,11.00
2018-04-16T06:37:57.085Z,11.00
2018-04-16T06:40:29.708Z,11.00
2018-04-16T06:43:02.359Z,10.90
2018-04-16T06:45:34.962Z,11.00
2018-04-16T06:48:07.584Z,10.90
2018-04-16T06:50:40.188Z,11.00
2018-04-16T06:53:12.888Z,10.90
2018-04-16T06:55:45.454Z,10.90
2018-04-16T06:58:18.079Z,10.90
2018-04-16T07:00:51.472Z,11.00
2018-04-16T07:03:24.106Z,10.90
2018-04-16T07:05:56.727Z,10.90
2018-04-16T07:08:29.383Z,10.90
2018-04-16T07:11:02.005Z,10.90
2018-04-16T07:13:34.650Z,10.90
2018-04-16T07:16:08.048Z,11.00
2018-04-16T07:18:40.665Z,11.00
2018-04-16T07:21:14.048Z,11.10
2018-04-16T07:23:47.439Z,11.10
2018-04-16T07:26:20.043Z,11.10
2018-04-16T07:28:52.679Z,11.10
2018-04-16T07:31:25.275Z,11.20
2018-04-16T07:33:57.905Z,11.30
2018-04-16T07:36:30.508Z,11.30
2018-04-16T07:39:03.155Z,11.40
2018-04-16T07:41:35.755Z,11.40
2018-04-16T07:44:08.376Z,11.40
2018-04-16T07:46:40.972Z,11.50
2018-04-16T07:49:13.591Z,11.50
2018-04-16T07:51:46.962Z,11.60
2018-04-16T07:54:19.616Z,11.60
2018-04-16T07:56:52.216Z,11.60
2018-04-16T07:59:24.855Z,11.60
2018-04-16T08:01:57.459Z,11.70
2018-04-16T08:04:30.877Z,11.70
2018-04-16T08:07:04.247Z,11.70
2018-04-16T08:09:36.891Z,11.70
2018-04-16T08:12:09.487Z,11.70
2018-04-16T08:14:42.111Z,11.70
2018-04-16T08:17:15.189Z,11.70
2018-04-16T08:19:47.813Z,11.70
2018-04-16T08:22:20.424Z,11.70
2018-04-16T08:24:53.074Z,11.70
2018-04-16T08:27:25.683Z,11.70
2018-04-16T08:29:58.329Z,11.70
2018-04-16T08:32:30.939Z,11.70
2018-04-16T08:35:03.581Z,11.70
2018-04-16T08:37:36.179Z,11.70
2018-04-16T08:40:08.804Z,11.70
2018-04-16T08:42:41.404Z,11.70
2018-04-16T08:45:14.037Z,11.70
2018-04-16T08:47:46.648Z,11.70
2018-04-16T08:50:20.040Z,11.80
2018-04-16T08:52:52.675Z,11.70
2018-04-16T08:55:25.290Z,11.80
2018-04-16T08:57:57.894Z,11.80
2018-04-16T09:00:30.517Z,11.90
2018-04-16T09:03:03.115Z,11.90
2018-04-16T09:05:36.508Z,12.00
2018-04-16T09:08:09.113Z,12.00
2018-04-16T09:10:42.503Z,12.10
2018-04-16T09:13:15.121Z,12.10
2018-04-16T09:15:48.511Z,12.20
2018-04-16T09:18:21.112Z,12.20
2018-04-16T09:20:54.511Z,12.30
2018-04-16T09:23:27.119Z,12.30
2018-04-16T09:26:00.512Z,12.40
2018-04-16T09:28:33.116Z,12.40
2018-04-16T09:31:05.736Z,12.50
2018-04-16T09:33:38.334Z,12.50
2018-04-16T09:36:10.964Z,12.60
2018-04-16T09:38:43.563Z,12.70
2018-04-16T09:41:16.195Z,12.80
2018-04-16T09:43:48.796Z,12.80
2018-04-16T09:46:21.407Z,12.90
2018-04-16T09:48:54.005Z,13.00
2018-04-16T09:51:26.626Z,13.10
2018-04-16T09:53:59.224Z,13.20
2018-04-16T09:56:31.848Z,13.20
2018-04-16T09:59:04.439Z,13.30
2018-04-16T10:01:38.872Z,13.30
2018-04-16T10:04:11.476Z,13.40
2018-04-16T10:06:44.091Z,13.40
2018-04-16T10:09:16.708Z,13.50
2018-04-16T10:11:49.336Z,13.50
2018-04-16T10:14:21.939Z,13.60
2018-04-16T10:16:54.566Z,13.60
2018-04-16T10:19:27.163Z,13.70
2018-04-16T10:21:59.792Z,13.80
2018-04-16T10:24:32.408Z,13.80
2018-04-16T10:27:05.031Z,13.80
2018-04-16T10:29:37.640Z,13.80
2018-04-16T10:32:10.263Z,13.90
2018-04-16T10:34:42.871Z,14.00
2018-04-16T10:37:15.491Z,14.00
2018-04-16T10:39:48.106Z,14.10
2018-04-16T10:42:20.736Z,14.20
2018-04-16T10:44:53.337Z,14.30
2018-04-16T10:47:25.964Z,14.40
2018-04-16T10:49:58.566Z,14.50
2018-04-16T10:52:31.192Z,14.50
2018-04-16T10:55:04.568Z,14.70
2018-04-16T10:57:37.191Z,14.70
2018-04-16T11:00:10.567Z,14.80
2018-04-16T11:02:43.188Z,14.80
2018-04-16T11:05:16.556Z,14.90
2018-04-16T11:07:49.179Z,14.90
2018-04-16T11:10:21.776Z,15.00
2018-04-16T11:12:55.159Z,15.10
2018-04-16T11:15:27.768Z,15.10
2018-04-16T11:18:01.167Z,15.20
2018-04-16T11:20:33.767Z,15.20
2018-04-16T11:23:06.397Z,15.30
2018-04-16T11:25:38.994Z,15.50
2018-04-16T11:28:11.620Z,15.60
2018-04-16T11:30:44.223Z,15.70
2018-04-16T11:33:16.849Z,15.90
2018-04-16T11:35:49.450Z,16.00
2018-04-16T11:38:22.072Z,16.10
2018-04-16T11:40:54.669Z,16.30
2018-04-16T11:43:27.286Z,16.50
2018-04-16T11:45:59.884Z,16.60
2018-04-16T11:48:32.512Z,16.60
2018-04-16T11:51:05.879Z,16.70
2018-04-16T11:53:38.513Z,16.60
2018-04-16T11:56:11.118Z,16.60
2018-04-16T11:58:43.741Z,16.70
2018-04-16T12:01:16.339Z,16.60
2018-04-16T12:03:48.951Z,16.60
2018-04-16T12:06:22.316Z,16.80
2018-04-16T12:08:54.936Z,16.70
2018-04-16T12:11:27.536Z,16.70
2018-04-16T12:14:00.927Z,16.80
2018-04-16T12:16:33.556Z,16.80
2018-04-16T12:19:06.972Z,16.90
2018-04-16T12:21:39.587Z,16.90
2018-04-16T12:24:12.211Z,17.00
2018-04-16T12:26:44.816Z,16.90
2018-04-16T12:29:17.632Z,16.90
2018-04-16T12:31:50.279Z,16.90
2018-04-16T12:34:22.928Z,16.80
2018-04-16T12:36:55.539Z,16.70
2018-04-16T12:39:28.199Z,16.70
2018-04-16T12:42:01.571Z,16.70
2018-04-16T12:44:34.196Z,16.70
2018-04-16T12:47:07.565Z,16.70
2018-04-16T12:49:40.211Z,16.70
2018-04-16T12:52:12.813Z,16.70
2018-04-16T12:54:45.451Z,16.80
2018-04-16T12:57:18.056Z,16.80
2018-04-16T12:59:50.711Z,16.80
2018-04-16T13:02:23.348Z,16.80
2018-04-16T13:04:56.760Z,16.70
2018-04-16T13:07:30.127Z,16.70
2018-04-16T13:10:02.771Z,16.70
2018-04-16T13:12:36.138Z,16.60
2018-04-16T13:15:08.768Z,16.60
2018-04-16T13:17:42.131Z,16.60
2018-04-16T13:20:14.751Z,16.60
2018-04-16T13:22:47.343Z,16.60
2018-04-16T13:25:20.040Z,16.60
2018-04-16T13:27:53.423Z,16.60
2018-04-16T13:30:26.068Z,16.60
2018-04-16T13:32:58.669Z,16.60
2018-04-16T13:35:31.311Z,16.60
2018-04-16T13:38:03.908Z,16.60
2018-04-16T13:40:36.582Z,16.60
2018-04-16T13:43:09.215Z,16.60
2018-04-16T13:45:41.859Z,16.60
2018-04-16T13:48:14.469Z,16.60
2018-04-16T13:50:47.086Z,16.60
2018-04-16T13:53:20.486Z,16.50
2018-04-16T13:55:53.900Z,16.50
2018-04-16T13:58:33.073Z,16.50
2018-04-16T14:01:05.760Z,16.40
2018-04-16T14:03:38.502Z,16.40
2018-04-16T14:06:12.004Z,16.30
2018-04-16T14:08:44.611Z,16.30
2018-04-16T14:11:17.233Z,16.20
2018-04-16T14:13:50.652Z,16.20
2018-04-16T14:16:23.318Z,16.10
2018-04-16T14:18:56.902Z,16.10
2018-04-16T14:21:29.580Z,16.10
2018-04-16T14:24:02.188Z,16.10
2018-04-16T14:26:34.857Z,16.10
2018-04-16T14:29:07.488Z,16.10
2018-04-16T14:31:40.118Z,16.10
2018-04-16T14:34:12.717Z,16.10
2018-04-16T14:36:45.356Z,16.00
2018-04-16T14:39:17.954Z,16.00
2018-04-16T14:41:50.652Z,16.00
2018-04-16T14:44:23.248Z,16.00
2018-04-16T14:46:55.899Z,15.90
2018-04-16T14:49:28.500Z,15.90
2018-04-16T14:52:01.127Z,15.90
2018-04-16T14:54:34.494Z,15.90
2018-04-16T14:57:07.147Z,15.80
2018-04-16T14:59:39.746Z,15.80
2018-04-16T15:02:12.383Z,15.80
2018-04-16T15:04:44.984Z,15.80
2018-04-16T15:07:17.636Z,15.80
2018-04-16T15:09:50.235Z,15.80
2018-04-16T15:12:22.895Z,15.70
2018-04-16T15:14:55.491Z,15.70
2018-04-16T15:17:28.140Z,15.70
2018-04-16T15:20:00.740Z,15.70
2018-04-16T15:22:33.378Z,15.70
2018-04-16T15:25:06.748Z,15.60
2018-04-16T15:27:39.426Z,15.60
2018-04-16T15:30:12.052Z,15.60
2018-04-16T15:32:51.847Z,15.60
2018-04-16T15:35:24.461Z,15.60
2018-04-16T15:37:57.083Z,15.60
2018-04-16T15:40:30.447Z,15.50
2018-04-16T15:43:03.088Z,15.50
2018-04-16T15:45:36.548Z,15.50
2018-04-16T15:48:09.191Z,15.50
2018-04-16T15:50:42.560Z,15.50
2018-04-16T15:53:15.204Z,15.50
2018-04-16T15:55:47.804Z,15.50
2018-04-16T15:58:20.482Z,15.50
2018-04-16T16:00:53.843Z,15.50
2018-04-16T16:03:26.483Z,15.50
2018-04-16T16:05:59.888Z,15.50
2018-04-16T16:08:33.307Z,15.40
2018-04-16T16:11:06.671Z,15.40
2018-04-16T16:13:39.385Z,15.40
2018-04-16T16:16:11.987Z,15.40
2018-04-16T16:18:44.632Z,15.40
2018-04-16T16:21:17.284Z,15.30
2018-04-16T16:23:49.933Z,15.30
2018-04-16T16:26:22.572Z,15.30
2018-04-16T16:29:08.594Z,15.30
2018-04-16T16:31:41.187Z,15.20
2018-04-16T16:34:13.827Z,15.20
2018-04-16T16:36:46.543Z,15.20
2018-04-16T16:39:19.160Z,15.20
2018-04-16T16:41:51.779Z,15.20
2018-04-16T16:44:24.478Z,15.10
2018-04-16T16:46:57.151Z,15.10
2018-04-16T16:49:29.888Z,15.10
2018-04-16T16:52:17.173Z,15.10
2018-04-16T16:54:49.816Z,15.10
2018-04-16T16:57:22.642Z,15.10
2018-04-16T16:59:55.334Z,15.10
2018-04-16T17:02:28.095Z,15.10
2018-04-16T17:05:01.428Z,15.00
2018-04-16T17:07:34.036Z,15.00
2018-04-16T17:10:07.037Z,15.00
2018-04-16T17:12:39.787Z,15.00
2018-04-16T17:15:12.515Z,14.90
2018-04-16T17:17:45.891Z,14.90
2018-04-16T17:20:18.673Z,14.90
2018-04-16T17:22:52.307Z,14.90
2018-04-16T17:25:25.011Z,14.90
2018-04-16T17:27:58.606Z,14.90
2018-04-16T17:30:31.343Z,14.80
2018-04-16T17:33:04.055Z,14.80
2018-04-16T17:35:50.907Z,14.80
2018-04-16T17:38:23.722Z,14.80
2018-04-16T17:40:56.627Z,14.70
2018-04-16T17:43:29.259Z,14.70
2018-04-16T17:46:02.893Z,14.60
2018-04-16T17:48:35.720Z,14.60
2018-04-16T17:51:08.395Z,14.60
2018-04-16T17:53:41.005Z,14.50
2018-04-16T17:56:13.733Z,14.50
2018-04-16T18:01:48.494Z,14.40
2018-04-16T18:04:21.147Z,14.30
2018-04-16T18:06:53.841Z,14.30
2018-04-16T18:09:26.538Z,14.30
2018-04-16T18:11:59.366Z,14.30
2018-04-16T18:14:32.859Z,14.20
2018-04-16T18:17:05.485Z,14.10
2018-04-16T18:19:38.939Z,14.10
2018-04-16T18:22:11.579Z,14.10
2018-04-16T18:24:46.176Z,14.00
2018-04-16T18:27:18.804Z,14.00
2018-04-16T18:29:51.423Z,13.90
2018-04-16T18:32:24.830Z,13.80
2018-04-16T18:34:58.238Z,13.80
2018-04-16T18:37:31.619Z,13.70
2018-04-16T18:40:04.229Z,13.70
2018-04-16T18:42:36.915Z,13.70
2018-04-16T18:45:09.523Z,13.70
2018-04-16T18:47:42.912Z,13.60
2018-04-16T18:50:15.528Z,13.60
2018-04-16T18:52:48.915Z,13.50
2018-04-16T18:55:21.543Z,13.50
2018-04-16T18:57:54.178Z,13.40
2018-04-16T19:00:27.571Z,13.40
2018-04-16T19:03:00.206Z,13.30
2018-04-16T19:05:32.805Z,13.40
2018-04-16T19:08:05.422Z,13.30
2018-04-16T19:10:38.855Z,13.20
2018-04-16T19:13:11.560Z,13.20
2018-04-16T19:15:44.150Z,13.20
2018-04-16T19:18:16.787Z,13.20
2018-04-16T19:20:55.049Z,13.10
2018-04-16T19:23:38.832Z,13.10
2018-04-16T19:26:11.482Z,13.00
2018-04-16T19:28:44.114Z,13.00
2018-04-16T19:31:16.724Z,12.90
2018-04-16T19:33:55.860Z,12.70
2018-04-16T19:36:28.464Z,12.70
2018-04-16T19:39:01.952Z,12.60
2018-04-16T19:41:41.123Z,12.60
2018-04-16T19:44:13.791Z,12.60
2018-04-16T19:46:47.212Z,12.50
2018-04-16T19:49:25.488Z,12.40
2018-04-16T19:51:58.116Z,12.40
2018-04-16T19:54:30.767Z,12.40
2018-04-16T19:57:09.056Z,12.30
2018-04-16T19:59:41.799Z,12.30
2018-04-16T20:02:20.174Z,12.30
2018-04-16T20:04:52.827Z,12.30
2018-04-16T20:07:25.431Z,12.20
2018-04-16T20:09:58.231Z,12.10
2018-04-16T20:12:30.911Z,12.10
2018-04-16T20:15:03.577Z,12.00
2018-04-16T20:17:36.194Z,12.00
2018-04-16T20:20:08.828Z,11.90
2018-04-16T20:22:41.427Z,11.90
2018-04-16T20:25:14.063Z,11.90
2018-04-16T20:27:47.438Z,11.80
2018-04-16T20:30:20.931Z,11.80
2018-04-16T20:32:59.935Z,11.80
2018-04-16T20:35:33.358Z,11.60
2018-04-16T20:38:05.978Z,11.60
2018-04-16T20:40:38.632Z,11.60
2018-04-16T20:43:12.003Z,11.60
2018-04-16T20:45:44.656Z,11.60
2018-04-16T20:48:17.264Z,11.50
2018-04-16T20:50:49.912Z,11.50
2018-04-16T20:53:23.311Z,11.40
2018-04-16T20:55:55.948Z,11.40
2018-04-16T20:58:28.557Z,11.40
2018-04-16T21:01:01.208Z,11.30
2018-04-16T21:03:34.584Z,11.20
2018-04-16T21:06:07.208Z,11.20
2018-04-16T21:08:40.580Z,11.20
2018-04-16T21:11:13.230Z,11.10
2018-04-16T21:13:46.628Z,11.10
2018-04-16T21:16:20.059Z,11.00
2018-04-16T21:18:52.671Z,11.00
2018-04-16T21:21:25.315Z,11.00
2018-04-16T21:23:57.910Z,11.00
2018-04-16T21:26:31.303Z,10.90
2018-04-16T21:29:03.904Z,10.90
2018-04-16T21:34:53.880Z,10.90
2018-04-16T21:37:26.495Z,10.90
2018-04-16T21:39:59.107Z,10.90
2018-04-16T21:42:31.750Z,10.90
2018-04-16T21:45:04.388Z,10.90
2018-04-16T21:47:37.022Z,10.90
2018-04-16T21:50:09.631Z,10.90
2018-04-16T21:52:42.275Z,10.90
2018-04-16T21:55:14.878Z,10.80
2018-04-16T21:57:48.263Z,10.80
2018-04-16T22:00:20.871Z,10.80
2018-04-16T22:02:53.510Z,10.80
2018-04-16T22:05:26.187Z,10.80
2018-04-16T22:07:58.833Z,10.70
2018-04-16T22:10:31.545Z,10.70
2018-04-16T22:13:04.979Z,10.70
2018-04-16T22:15:37.648Z,10.70
2018-04-16T22:18:10.271Z,10.60
2018-04-16T22:20:42.862Z,10.60
2018-04-16T22:23:15.492Z,10.60
2018-04-16T22:25:48.102Z,10.60
2018-04-16T22:28:21.667Z,10.60
2018-04-16T22:30:54.268Z,10.60
2018-04-16T22:33:26.914Z,10.60
2018-04-16T22:35:59.544Z,10.50
2018-04-16T22:38:32.178Z,10.50
2018-04-16T22:41:04.790Z,10.50
2018-04-16T22:43:38.195Z,10.50
2018-04-16T22:46:10.790Z,10.50
2018-04-16T22:48:43.431Z,10.50
2018-04-16T22:51:16.799Z,10.40
2018-04-16T22:53:50.202Z,10.40
2018-04-16T22:56:23.571Z,10.40
2018-04-16T22:58:56.238Z,10.40
2018-04-16T23:01:28.855Z,10.40
2018-04-16T23:04:01.513Z,10.40
2018-04-16T23:06:34.166Z,10.30
2018-04-16T23:09:06.811Z,10.30
2018-04-16T23:11:39.419Z,10.20
2018-04-16T23:14:12.044Z,10.20
2018-04-16T23:16:44.648Z,10.10
2018-04-16T23:19:18.056Z,10.00
2018-04-16T23:21:50.685Z,10.00
2018-04-16T23:24:23.410Z,10.00
2018-04-16T23:26:56.096Z,9.90
2018-04-16T23:29:28.743Z,9.90
2018-04-16T23:32:01.363Z,9.90
2018-04-16T23:34:33.983Z,9.90
2018-04-16T23:37:06.687Z,9.90
2018-04-16T23:39:53.304Z,9.90
2018-04-16T23:42:25.932Z,9.90
2018-04-16T23:44:58.568Z,9.90
2018-04-16T23:47:31.167Z,9.90
2018-04-16T23:50:03.811Z,9.80
2018-04-16T23:52:36.412Z,9.90
2018-04-16T23:55:09.035Z,9.90
2018-04-16T23:57:41.635Z,9.90
